Time;durP1;ratioP1;P1;durP2;ratioP2;P2;SDS_P1;SDS_P2;PMS_P1;PMS_P2;Temp;Humidity;BMP_temperature;BMP_pressure;BME280_temperature;BME280_humidity;BME280_pressure;Samples;Min_cycle;Max_cycle;Signal;HPM_P1;HPM_P2
2022/12/11 00:01:15;;;;;;;0.25;0.25;;;1.90;99.90;;;;;;5030369;28;20047;-63
2022/12/11 00:03:41;;;;;;;2.25;2.05;;;1.90;99.90;;;;;;5024332;28;20056;-63
2022/12/11 00:06:08;;;;;;;1.35;1.30;;;1.90;99.90;;;;;;5027387;28;20050;-63
2022/12/11 00:08:34;;;;;;;1.15;1.10;;;1.80;99.90;;;;;;5028791;28;20045;-63
2022/12/11 00:11:00;;;;;;;2.75;2.30;;;1.80;99.90;;;;;;5028083;28;20052;-63
2022/12/11 00:13:26;;;;;;;0.28;0.28;;;1.80;99.90;;;;;;5028532;28;20053;-63
2022/12/11 00:15:51;;;;;;;2.55;2.38;;;1.80;99.90;;;;;;5028596;28;20092;-63
2022/12/11 00:18:17;;;;;;;0.75;0.75;;;1.80;99.90;;;;;;5030241;28;20045;-63
2022/12/11 00:20:42;;;;;;;0.68;0.68;;;1.80;99.90;;;;;;5029592;28;20569;-63
2022/12/11 00:23:09;;;;;;;2.28;1.85;;;1.90;99.90;;;;;;5027352;28;20053;-63
2022/12/11 00:25:39;;;;;;;2.28;1.90;;;1.90;99.90;;;;;;5028140;28;20037;-63
2022/12/11 00:28:05;;;;;;;1.05;1.05;;;1.90;99.90;;;;;;5028659;28;20076;-63
2022/12/11 00:30:30;;;;;;;0.30;0.30;;;1.90;99.90;;;;;;5027544;28;20500;-63
2022/12/11 00:32:56;;;;;;;3.55;3.22;;;1.90;99.90;;;;;;5028162;28;20097;-63
2022/12/11 00:35:21;;;;;;;0.30;0.30;;;1.90;99.90;;;;;;5030236;28;20079;-63
2022/12/11 00:37:47;;;;;;;0.55;0.55;;;2.00;99.90;;;;;;5027082;28;20477;-63
2022/12/11 00:40:12;;;;;;;0.40;0.40;;;2.00;99.90;;;;;;5027816;28;20045;-63
2022/12/11 00:42:38;;;;;;;0.90;0.90;;;2.00;99.90;;;;;;5028143;28;20046;-63
2022/12/11 00:45:04;;;;;;;4.50;3.83;;;2.10;99.90;;;;;;5027956;28;20107;-63
2022/12/11 00:47:29;;;;;;;1.75;1.65;;;2.00;99.90;;;;;;5028516;28;20053;-63
2022/12/11 00:49:55;;;;;;;2.90;2.70;;;2.00;99.90;;;;;;5027597;28;20477;-63
2022/12/11 00:52:21;;;;;;;1.95;1.85;;;2.00;99.90;;;;;;5030396;28;20102;-63
2022/12/11 00:54:47;;;;;;;2.38;1.85;;;2.00;99.90;;;;;;5028268;28;20685;-63
2022/12/11 00:57:12;;;;;;;0.20;0.20;;;2.10;99.90;;;;;;5029018;28;20037;-64
2022/12/11 00:59:38;;;;;;;2.17;0.90;;;2.00;99.90;;;;;;5025419;28;20030;-63
2022/12/11 01:02:03;;;;;;;0.60;0.60;;;2.10;99.90;;;;;;5027357;28;20053;-63
2022/12/11 01:04:29;;;;;;;0.75;0.75;;;2.00;99.90;;;;;;5028688;28;20041;-63
2022/12/11 01:06:54;;;;;;;0.75;0.75;;;2.00;99.90;;;;;;5024428;28;20045;-64
2022/12/11 01:12:05;;;;;;;1.13;1.13;;;2.00;99.90;;;;;;5029532;28;20068;-64
2022/12/11 01:14:30;;;;;;;3.97;3.13;;;2.00;99.90;;;;;;5027833;28;20053;-63
2022/12/11 01:16:56;;;;;;;1.38;1.27;;;2.00;99.90;;;;;;5028627;28;20057;-63
2022/12/11 01:19:21;;;;;;;3.75;1.58;;;2.10;99.90;;;;;;5026644;28;20544;-63
2022/12/11 01:21:47;;;;;;;1.65;1.48;;;2.00;99.90;;;;;;5027439;28;20618;-64
2022/12/11 01:24:13;;;;;;;1.42;1.33;;;2.00;99.90;;;;;;5027630;28;20060;-63
2022/12/11 01:26:38;;;;;;;0.68;0.68;;;2.00;99.90;;;;;;5022689;28;20504;-64
2022/12/11 01:29:04;;;;;;;0.10;0.10;;;2.00;99.90;;;;;;5024996;28;20104;-63
2022/12/11 01:31:29;;;;;;;0.20;0.20;;;2.00;99.90;;;;;;5027691;28;20041;-64
2022/12/11 01:33:55;;;;;;;0.20;0.20;;;2.10;99.90;;;;;;5026509;28;20128;-63
2022/12/11 01:36:22;;;;;;;0.28;0.28;;;2.10;99.90;;;;;;5027004;28;20041;-64
2022/12/11 01:38:48;;;;;;;2.40;1.63;;;2.10;99.90;;;;;;5027338;28;20142;-63
2022/12/11 01:41:15;;;;;;;3.55;2.42;;;2.10;99.90;;;;;;5026438;28;20048;-64
2022/12/11 01:43:59;;;;;;;0.55;0.55;;;2.20;99.90;;;;;;5027472;28;20038;-64
2022/12/11 01:46:25;;;;;;;0.55;0.55;;;2.20;99.90;;;;;;5028705;28;20094;-64
2022/12/11 01:48:51;;;;;;;0.25;0.25;;;2.20;99.90;;;;;;5026790;28;20115;-63
2022/12/11 01:51:17;;;;;;;1.40;1.30;;;2.20;99.90;;;;;;5029237;28;20046;-63
2022/12/11 01:53:49;;;;;;;2.22;1.60;;;2.20;99.90;;;;;;5026221;28;20522;-63
2022/12/11 01:56:14;;;;;;;0.73;0.73;;;2.20;99.90;;;;;;5026392;28;20583;-64
2022/12/11 01:58:47;;;;;;;0.93;0.68;;;2.20;99.90;;;;;;5028240;28;20038;-64
2022/12/11 02:01:38;;;;;;;0.85;0.85;;;2.20;99.90;;;;;;5024564;28;20823;-63
2022/12/11 02:04:06;;;;;;;0.30;0.30;;;2.20;99.90;;;;;;5025708;28;20187;-63
2022/12/11 02:06:42;;;;;;;0.70;0.70;;;2.20;99.90;;;;;;5024047;28;20128;-63
2022/12/11 02:09:13;;;;;;;0.20;0.20;;;2.30;99.90;;;;;;5026678;28;20052;-63
2022/12/11 02:11:52;;;;;;;1.15;1.15;;;2.20;99.90;;;;;;5026178;28;20157;-64
2022/12/11 02:14:36;;;;;;;0.35;0.35;;;2.30;99.90;;;;;;5027214;28;20075;-64
2022/12/11 02:17:35;;;;;;;11.80;3.22;;;2.30;99.90;;;;;;5019812;28;20049;-63
2022/12/11 02:20:12;;;;;;;6.60;3.63;;;2.30;99.90;;;;;;5026898;28;20041;-63
2022/12/11 02:22:56;;;;;;;0.30;0.30;;;2.40;99.90;;;;;;5026549;28;20041;-63
2022/12/11 02:25:41;;;;;;;;;;;2.40;99.90;;;;;;5025828;28;20528;-64
2022/12/11 02:28:38;;;;;;;0.77;0.55;;;2.40;99.90;;;;;;5015950;28;19947;-64
2022/12/11 02:31:20;;;;;;;0.40;0.40;;;2.40;99.90;;;;;;5025004;28;20037;-63
2022/12/11 02:33:50;;;;;;;1.85;1.75;;;2.40;99.90;;;;;;5026557;28;20037;-64
2022/12/11 02:36:18;;;;;;;3.22;3.00;;;2.40;99.90;;;;;;5028810;28;20409;-64
2022/12/11 02:38:49;;;;;;;2.95;1.67;;;2.40;99.90;;;;;;5025277;28;20097;-64
2022/12/11 02:41:17;;;;;;;5.47;1.48;;;2.40;99.90;;;;;;5026034;28;20056;-64
2022/12/11 02:43:43;;;;;;;1.75;1.65;;;2.50;99.90;;;;;;5027922;28;20091;-63
2022/12/11 02:46:11;;;;;;;3.55;1.80;;;2.50;99.90;;;;;;5024044;28;20054;-63
2022/12/11 02:48:37;;;;;;;0.30;0.30;;;2.50;99.90;;;;;;5025950;28;20041;-63
2022/12/11 02:51:05;;;;;;;7.88;3.42;;;2.60;99.90;;;;;;5027803;28;20374;-63
2022/12/11 02:53:33;;;;;;;1.13;1.13;;;2.50;99.90;;;;;;5026236;28;20046;-64
2022/12/11 02:56:17;;;;;;;0.30;0.30;;;2.50;99.90;;;;;;5026024;28;20041;-64
2022/12/11 02:58:53;;;;;;;1.80;1.73;;;2.50;99.90;;;;;;5027395;28;20413;-63
2022/12/11 03:01:18;;;;;;;4.03;3.03;;;2.50;99.90;;;;;;5024215;28;20067;-64
2022/12/11 03:03:44;;;;;;;1.23;1.23;;;2.50;99.90;;;;;;5022278;28;20473;-64
2022/12/11 03:06:15;;;;;;;1.85;1.75;;;2.60;99.90;;;;;;5025858;28;20050;-63
2022/12/11 03:08:40;;;;;;;0.93;0.93;;;2.50;99.90;;;;;;5024674;28;20133;-64
2022/12/11 03:11:10;;;;;;;3.05;2.85;;;2.60;99.90;;;;;;5026724;28;20160;-64
2022/12/11 03:13:37;;;;;;;1.58;1.50;;;2.60;99.90;;;;;;5025427;28;20041;-64
2022/12/11 03:16:34;;;;;;;0.40;0.40;;;2.50;99.90;;;;;;5027582;28;20442;-64
2022/12/11 03:19:20;;;;;;;1.85;1.75;;;2.50;99.90;;;;;;5026991;28;20037;-64
2022/12/11 03:21:53;;;;;;;0.28;0.28;;;2.50;99.90;;;;;;5028319;28;20049;-64
2022/12/11 03:24:21;;;;;;;;;;;2.50;99.90;;;;;;5028863;28;20045;-63
2022/12/11 03:27:04;;;;;;;0.35;0.35;;;2.50;99.90;;;;;;5029393;28;20010;-63
2022/12/11 03:29:39;;;;;;;0.57;0.57;;;2.50;99.90;;;;;;5028744;28;20056;-64
2022/12/11 03:32:22;;;;;;;3.40;1.85;;;2.50;99.90;;;;;;5030689;28;20296;-64
2022/12/11 03:34:56;;;;;;;2.20;2.10;;;2.50;99.90;;;;;;5028438;28;20516;-64
2022/12/11 03:37:23;;;;;;;0.20;0.20;;;2.50;99.90;;;;;;5028927;28;20121;-63
2022/12/11 03:39:52;;;;;;;0.82;0.82;;;2.50;99.90;;;;;;5031119;28;20049;-63
2022/12/11 03:42:19;;;;;;;1.23;1.13;;;2.50;99.90;;;;;;5028587;28;20050;-63
2022/12/11 03:44:48;;;;;;;0.73;0.73;;;2.60;99.90;;;;;;5029187;28;20144;-63
2022/12/11 03:47:18;;;;;;;0.43;0.43;;;2.50;99.90;;;;;;5031545;28;20505;-63
2022/12/11 03:49:45;;;;;;;0.88;0.88;;;2.50;99.90;;;;;;5028637;28;20084;-64
2022/12/11 03:52:13;;;;;;;39.58;5.97;;;2.50;99.90;;;;;;5028371;28;20473;-63
2022/12/11 03:54:41;;;;;;;1.95;1.85;;;2.50;99.90;;;;;;5031583;28;20053;-63
2022/12/11 03:57:10;;;;;;;2.63;2.22;;;2.50;99.90;;;;;;5029152;28;20045;-63
2022/12/11 03:59:35;;;;;;;2.30;2.13;;;2.50;99.90;;;;;;5028837;28;20038;-63
2022/12/11 04:02:01;;;;;;;3.45;3.13;;;2.50;99.90;;;;;;5029302;28;20056;-64
2022/12/11 04:04:27;;;;;;;0.75;0.75;;;2.50;99.90;;;;;;5027165;28;20093;-64
2022/12/11 04:06:52;;;;;;;0.85;0.85;;;2.50;99.90;;;;;;5028266;28;20085;-63
2022/12/11 04:09:18;;;;;;;1.80;1.67;;;2.50;99.90;;;;;;5030376;28;20045;-64
2022/12/11 04:11:43;;;;;;;1.70;1.60;;;2.40;99.90;;;;;;5028521;28;20045;-64
2022/12/11 04:16:57;;;;;;;3.33;2.85;;;2.40;99.90;;;;;;5027685;28;20056;-63
2022/12/11 04:24:56;;;;;;;0.52;0.52;;;2.50;99.90;;;;;;5028112;28;20455;-63
2022/12/11 04:30:10;;;;;;;5.35;1.80;;;2.40;99.90;;;;;;5027818;28;20049;-64
2022/12/11 04:32:36;;;;;;;3.70;3.30;;;2.40;99.90;;;;;;5028725;28;20049;-63
2022/12/11 04:35:02;;;;;;;0.63;0.63;;;2.40;99.90;;;;;;5029592;28;20045;-64
2022/12/11 04:37:27;;;;;;;0.47;0.47;;;2.50;99.90;;;;;;5025839;28;20046;-63
2022/12/11 04:39:53;;;;;;;3.70;0.95;;;2.50;99.90;;;;;;5028298;28;20039;-64
2022/12/11 04:42:18;;;;;;;1.77;1.63;;;2.40;99.90;;;;;;5030460;28;20045;-63
2022/12/11 04:44:44;;;;;;;2.15;2.03;;;2.50;99.90;;;;;;5028911;28;20077;-63
2022/12/11 04:47:10;;;;;;;2.25;2.15;;;2.50;99.90;;;;;;5029542;28;20037;-63
2022/12/11 04:49:36;;;;;;;1.08;1.08;;;2.50;99.90;;;;;;5029997;28;20049;-63
2022/12/11 04:52:02;;;;;;;0.10;0.10;;;2.50;99.90;;;;;;5029244;28;20094;-63
2022/12/11 04:54:31;;;;;;;1.33;1.23;;;2.40;99.90;;;;;;5022041;28;20096;-63
2022/12/11 04:56:56;;;;;;;1.38;1.27;;;2.40;99.90;;;;;;5024889;28;20046;-64
2022/12/11 04:59:22;;;;;;;0.88;0.88;;;2.40;99.90;;;;;;5027826;28;20516;-63
2022/12/11 05:01:47;;;;;;;0.75;0.75;;;2.40;99.90;;;;;;5028606;28;20045;-63
2022/12/11 05:04:13;;;;;;;1.20;1.20;;;2.50;99.90;;;;;;5024852;28;20049;-64
2022/12/11 05:06:39;;;;;;;0.75;0.75;;;2.50;99.90;;;;;;5023480;28;20171;-64
2022/12/11 05:09:05;;;;;;;0.10;0.10;;;2.50;99.90;;;;;;5025881;28;20042;-63
2022/12/11 05:11:30;;;;;;;5.60;2.88;;;2.50;99.90;;;;;;5023310;28;20081;-63
2022/12/11 05:13:56;;;;;;;1.85;1.75;;;2.50;99.90;;;;;;5027837;28;20049;-64
2022/12/11 05:16:22;;;;;;;1.73;1.63;;;2.50;99.90;;;;;;5026439;28;20040;-63
2022/12/11 05:18:47;;;;;;;2.05;1.95;;;2.50;99.90;;;;;;5029269;28;20037;-63
2022/12/11 05:21:14;;;;;;;3.65;3.45;;;2.50;99.90;;;;;;5028144;28;20049;-64
2022/12/11 05:23:40;;;;;;;6.18;3.50;;;2.50;99.90;;;;;;5025761;28;20124;-63
2022/12/11 05:26:10;;;;;;;2.58;2.38;;;2.50;99.90;;;;;;5027467;28;20128;-64
2022/12/11 05:28:37;;;;;;;0.40;0.40;;;2.50;99.90;;;;;;5028432;28;20056;-64
2022/12/11 05:31:17;;;;;;;0.35;0.35;;;2.50;99.90;;;;;;5025927;28;20068;-64
2022/12/11 05:33:44;;;;;;;0.65;0.65;;;2.40;99.90;;;;;;5026265;28;20067;-63
2022/12/11 05:36:21;;;;;;;1.00;1.00;;;2.50;99.90;;;;;;5026329;28;20111;-63
2022/12/11 05:38:47;;;;;;;1.08;1.08;;;2.50;99.90;;;;;;5027137;28;20489;-64
2022/12/11 05:41:16;;;;;;;0.10;0.10;;;2.50;99.90;;;;;;5026758;28;20102;-63
2022/12/11 05:43:41;;;;;;;1.35;1.25;;;2.50;99.90;;;;;;5028619;28;20037;-63
2022/12/11 05:46:13;;;;;;;0.28;0.28;;;2.50;99.90;;;;;;5027351;28;20045;-63
2022/12/11 05:48:40;;;;;;;0.60;0.60;;;2.60;99.90;;;;;;5019417;28;20056;-64
2022/12/11 05:51:07;;;;;;;0.20;0.20;;;2.50;99.90;;;;;;5028699;28;20115;-64
2022/12/11 05:53:34;;;;;;;0.20;0.20;;;2.50;99.90;;;;;;5024209;28;20128;-63
2022/12/11 05:56:05;;;;;;;0.52;0.52;;;2.50;99.90;;;;;;5024689;28;20049;-63
2022/12/11 05:58:31;;;;;;;0.32;0.32;;;2.50;99.90;;;;;;5026365;28;20143;-63
2022/12/11 06:00:57;;;;;;;2.55;2.35;;;2.60;99.90;;;;;;5022827;28;20065;-63
2022/12/11 06:03:23;;;;;;;1.08;1.08;;;2.50;99.90;;;;;;5024990;28;20093;-63
2022/12/11 06:05:48;;;;;;;2.42;2.22;;;2.60;99.90;;;;;;5022967;28;20041;-63
2022/12/11 06:08:14;;;;;;;12.82;2.03;;;2.50;99.90;;;;;;5026631;28;20076;-64
2022/12/11 06:10:47;;;;;;;0.47;0.47;;;2.50;99.90;;;;;;5025167;28;20084;-64
2022/12/11 06:13:14;;;;;;;1.95;1.85;;;2.60;99.90;;;;;;5026568;28;20038;-63
2022/12/11 06:15:40;;;;;;;1.85;1.75;;;2.60;99.90;;;;;;5027244;28;20045;-64
2022/12/11 06:18:05;;;;;;;0.50;0.50;;;2.60;99.90;;;;;;5025495;28;20481;-64
2022/12/11 06:20:32;;;;;;;3.90;1.25;;;2.60;99.90;;;;;;5023159;28;20053;-64
2022/12/11 06:22:59;;;;;;;1.02;0.95;;;2.60;99.90;;;;;;5026147;28;20089;-63
2022/12/11 06:25:24;;;;;;;0.35;0.35;;;2.60;99.90;;;;;;5027625;28;20113;-64
2022/12/11 06:27:51;;;;;;;0.75;0.75;;;2.60;99.90;;;;;;5028426;28;20129;-64
2022/12/11 06:30:17;;;;;;;1.52;1.45;;;2.60;99.90;;;;;;5027353;28;20045;-64
2022/12/11 06:32:43;;;;;;;1.15;0.88;;;2.70;99.90;;;;;;5022868;28;20049;-64
2022/12/11 06:35:09;;;;;;;0.88;0.88;;;2.60;99.90;;;;;;5027974;28;20116;-63
2022/12/11 06:37:36;;;;;;;1.27;1.17;;;2.70;99.90;;;;;;5023193;28;20270;-64
2022/12/11 06:40:03;;;;;;;0.77;0.77;;;2.60;99.90;;;;;;5026335;28;20046;-64
2022/12/11 06:42:30;;;;;;;7.53;5.57;;;2.60;99.90;;;;;;5022869;28;20582;-63
2022/12/11 06:44:58;;;;;;;0.90;0.90;;;2.60;99.90;;;;;;5023777;28;20176;-64
2022/12/11 06:47:25;;;;;;;5.55;2.22;;;2.60;99.90;;;;;;5027735;28;20501;-64
2022/12/11 06:49:51;;;;;;;0.60;0.60;;;2.60;99.90;;;;;;5027081;28;20041;-63
2022/12/11 06:52:17;;;;;;;0.43;0.43;;;2.60;99.90;;;;;;5025159;28;20041;-63
2022/12/11 06:54:42;;;;;;;2.05;1.88;;;2.60;99.90;;;;;;5029114;28;20041;-63
2022/12/11 06:57:08;;;;;;;0.85;0.85;;;2.60;99.90;;;;;;5028664;28;20033;-63
2022/12/11 06:59:34;;;;;;;0.38;0.38;;;2.60;99.90;;;;;;5028939;28;20072;-63
2022/12/11 07:01:59;;;;;;;1.20;1.20;;;2.60;99.90;;;;;;5030010;28;20666;-63
2022/12/11 07:04:26;;;;;;;4.55;4.07;;;2.50;99.90;;;;;;5033575;28;20056;-63
2022/12/11 07:06:52;;;;;;;7.93;1.55;;;2.50;99.90;;;;;;5026751;28;20173;-63
2022/12/11 07:09:18;;;;;;;0.60;0.60;;;2.60;99.90;;;;;;5031151;28;20087;-63
2022/12/11 07:11:44;;;;;;;3.50;0.95;;;2.60;99.90;;;;;;5029833;28;20569;-63
2022/12/11 07:14:10;;;;;;;5.57;3.38;;;2.50;99.90;;;;;;5029242;28;20505;-63
2022/12/11 07:16:35;;;;;;;0.10;0.10;;;2.60;99.90;;;;;;5030624;28;20436;-63
2022/12/11 07:19:01;;;;;;;0.57;0.57;;;2.60;99.90;;;;;;5031004;28;20362;-63
2022/12/11 07:21:26;;;;;;;1.40;1.30;;;2.60;99.90;;;;;;5028506;28;20185;-63
2022/12/11 07:23:52;;;;;;;1.15;1.15;;;2.60;99.90;;;;;;5029423;28;20045;-63
2022/12/11 07:26:20;;;;;;;1.10;1.10;;;2.60;99.90;;;;;;5030402;28;20045;-63
2022/12/11 07:28:47;;;;;;;1.38;1.17;;;2.60;99.90;;;;;;5026128;28;20115;-64
2022/12/11 07:31:20;;;;;;;0.30;0.30;;;2.60;99.90;;;;;;5028011;28;20490;-64
2022/12/11 07:33:46;;;;;;;1.45;1.35;;;2.60;99.90;;;;;;5028015;28;20044;-64
2022/12/11 07:36:13;;;;;;;2.45;0.75;;;2.60;99.90;;;;;;5031683;28;20045;-64
2022/12/11 07:38:40;;;;;;;4.20;3.25;;;2.60;99.90;;;;;;5030626;28;20073;-64
2022/12/11 07:41:08;;;;;;;1.65;1.55;;;2.60;99.90;;;;;;5024478;28;20128;-64
2022/12/11 07:43:34;;;;;;;5.63;3.85;;;2.60;99.90;;;;;;5031278;28;20049;-64
2022/12/11 07:46:05;;;;;;;0.20;0.20;;;2.60;99.90;;;;;;5028101;28;20061;-64
2022/12/11 07:48:33;;;;;;;2.00;1.90;;;2.60;99.90;;;;;;5024348;28;20501;-64
2022/12/11 07:51:19;;;;;;;8.52;4.55;;;2.70;99.90;;;;;;5026969;28;20053;-64
2022/12/11 07:53:47;;;;;;;1.23;1.23;;;2.70;99.90;;;;;;5030064;28;20049;-64
2022/12/11 07:56:14;;;;;;;2.28;2.08;;;2.60;99.90;;;;;;5030674;28;20057;-64
2022/12/11 07:58:40;;;;;;;2.85;1.50;;;2.60;99.90;;;;;;5029336;28;20057;-64
2022/12/11 08:01:11;;;;;;;0.68;0.68;;;2.60;99.90;;;;;;5029783;28;20042;-64
2022/12/11 08:03:36;;;;;;;1.42;1.38;;;2.70;99.90;;;;;;5030423;28;20042;-63
2022/12/11 08:06:02;;;;;;;0.10;0.10;;;2.70;99.90;;;;;;5025840;28;20555;-64
2022/12/11 08:08:27;;;;;;;5.18;2.40;;;2.70;99.90;;;;;;5029987;28;20081;-64
2022/12/11 08:10:53;;;;;;;1.05;1.05;;;2.70;99.90;;;;;;5030518;28;20103;-64
2022/12/11 08:13:19;;;;;;;2.58;1.92;;;2.60;99.90;;;;;;5029779;28;20068;-64
2022/12/11 08:15:44;;;;;;;0.50;0.50;;;2.70;99.90;;;;;;5025121;28;20045;-64
2022/12/11 08:18:10;;;;;;;0.20;0.20;;;2.70;99.90;;;;;;5029429;28;20128;-64
2022/12/11 08:20:38;;;;;;;0.95;0.75;;;2.70;99.90;;;;;;5028849;28;20036;-64
2022/12/11 08:23:03;;;;;;;0.45;0.30;;;2.70;99.90;;;;;;5026974;28;20376;-64
2022/12/11 08:25:29;;;;;;;1.20;0.40;;;2.70;99.90;;;;;;5029580;28;20504;-64
2022/12/11 08:27:54;;;;;;;2.15;2.05;;;2.80;99.90;;;;;;5028208;28;20392;-64
2022/12/11 08:30:20;;;;;;;0.28;0.28;;;2.80;99.90;;;;;;5028602;28;20064;-64
2022/12/11 08:32:46;;;;;;;1.15;1.15;;;2.80;99.90;;;;;;5026910;28;20095;-64
2022/12/11 08:35:11;;;;;;;9.45;1.95;;;2.80;99.90;;;;;;5019453;28;20044;-64
2022/12/11 08:37:37;;;;;;;0.30;0.30;;;2.70;99.90;;;;;;5025309;28;20646;-64
2022/12/11 08:40:03;;;;;;;3.05;2.30;;;2.70;99.90;;;;;;5024049;28;20120;-64
2022/12/11 08:42:28;;;;;;;0.50;0.50;;;2.70;99.90;;;;;;5027791;28;20108;-64
2022/12/11 08:44:54;;;;;;;0.60;0.60;;;2.80;99.90;;;;;;5029218;28;20093;-64
2022/12/11 08:47:20;;;;;;;0.55;0.55;;;2.80;99.90;;;;;;5025964;28;20045;-64
2022/12/11 08:49:45;;;;;;;0.20;0.20;;;2.80;99.90;;;;;;5023997;28;20072;-64
2022/12/11 08:52:11;;;;;;;6.97;0.55;;;2.80;99.90;;;;;;5027618;28;20481;-64
2022/12/11 08:54:37;;;;;;;4.28;2.00;;;2.80;99.90;;;;;;5028968;28;20055;-64
2022/12/11 08:57:02;;;;;;;0.13;0.13;;;2.80;99.90;;;;;;5026828;28;20043;-64
2022/12/11 08:59:28;;;;;;;0.73;0.73;;;2.80;99.90;;;;;;5029260;28;20041;-64
2022/12/11 09:01:54;;;;;;;2.30;2.15;;;2.80;99.90;;;;;;5028534;28;20115;-64
2022/12/11 09:04:20;;;;;;;0.20;0.20;;;2.80;99.90;;;;;;5025104;28;20049;-64
2022/12/11 09:06:45;;;;;;;3.05;2.85;;;2.80;99.90;;;;;;5026275;28;20041;-64
2022/12/11 09:09:11;;;;;;;0.82;0.82;;;2.80;99.90;;;;;;5029964;28;20052;-64
2022/12/11 09:11:37;;;;;;;5.88;1.27;;;2.80;99.90;;;;;;5026732;28;20050;-64
2022/12/11 09:14:04;;;;;;;10.48;1.85;;;2.80;99.90;;;;;;5028355;28;20055;-64
2022/12/11 09:16:30;;;;;;;0.65;0.65;;;2.80;99.90;;;;;;5025709;28;20042;-64
2022/12/11 09:18:58;;;;;;;0.85;0.85;;;2.80;99.90;;;;;;5028316;28;20094;-64
2022/12/11 09:21:26;;;;;;;3.97;3.10;;;2.80;99.90;;;;;;5020699;28;20044;-64
2022/12/11 09:23:57;;;;;;;0.40;0.40;;;2.80;99.90;;;;;;5019766;28;20124;-64
2022/12/11 09:26:24;;;;;;;0.10;0.10;;;2.90;99.90;;;;;;5027242;28;20534;-65
2022/12/11 09:28:52;;;;;;;0.60;0.60;;;2.90;99.90;;;;;;5029303;28;20417;-64
2022/12/11 09:31:24;;;;;;;10.43;1.83;;;2.90;99.90;;;;;;5027624;28;20116;-64
2022/12/11 09:33:52;;;;;;;3.10;2.30;;;2.90;99.90;;;;;;5023606;28;20049;-64
2022/12/11 09:36:18;;;;;;;0.60;0.60;;;3.00;99.90;;;;;;5029484;28;20080;-64
2022/12/11 09:38:44;;;;;;;7.57;1.67;;;3.00;99.90;;;;;;5029034;28;20077;-64
2022/12/11 09:41:21;;;;;;;0.85;0.85;;;3.00;99.90;;;;;;5026102;28;20561;-64
2022/12/11 09:44:06;;;;;;;1.50;1.42;;;3.00;99.90;;;;;;5028746;28;20095;-64
2022/12/11 09:46:35;;;;;;;0.52;0.52;;;3.00;99.90;;;;;;5025245;28;20504;-65
2022/12/11 09:49:03;;;;;;;1.27;1.15;;;3.10;99.90;;;;;;5023534;28;20046;-64
2022/12/11 09:51:41;;;;;;;0.75;0.75;;;3.10;99.90;;;;;;5024708;28;20059;-64
2022/12/11 09:54:12;;;;;;;2.28;1.55;;;3.10;99.90;;;;;;5025072;28;20512;-64
2022/12/11 09:56:38;;;;;;;0.95;0.95;;;3.10;99.90;;;;;;5025519;28;20049;-64
2022/12/11 09:59:15;;;;;;;0.43;0.43;;;3.10;99.90;;;;;;5026499;28;20056;-64
2022/12/11 10:02:12;;;;;;;0.65;0.65;;;3.10;99.90;;;;;;5028439;28;20041;-64
2022/12/11 10:05:11;;;;;;;0.93;0.93;;;3.10;99.90;;;;;;5024175;28;20501;-64
2022/12/11 10:07:50;;;;;;;0.20;0.20;;;3.10;99.90;;;;;;5023942;28;20060;-64
2022/12/11 10:10:58;;;;;;;0.75;0.75;;;3.10;99.90;;;;;;5028515;28;20769;-64
2022/12/11 10:13:46;;;;;;;0.20;0.20;;;3.10;99.90;;;;;;5026002;28;20519;-64
2022/12/11 10:16:33;;;;;;;2.85;1.70;;;3.20;99.90;;;;;;5023859;28;20420;-64
2022/12/11 10:18:59;;;;;;;0.75;0.75;;;3.10;99.90;;;;;;5027220;28;20120;-64
2022/12/11 10:21:26;;;;;;;0.93;0.93;;;3.20;99.90;;;;;;5026843;28;20210;-65
2022/12/11 10:24:01;;;;;;;0.73;0.63;;;3.10;99.90;;;;;;5023145;28;20651;-64
2022/12/11 10:26:28;;;;;;;1.35;1.27;;;3.20;99.90;;;;;;5025126;28;20072;-64
2022/12/11 10:28:59;;;;;;;1.08;1.00;;;3.20;99.90;;;;;;5021648;28;20052;-63
2022/12/11 10:31:47;;;;;;;0.10;0.10;;;3.20;99.90;;;;;;5022025;28;20107;-63
2022/12/11 10:34:17;;;;;;;1.30;1.27;;;3.20;99.90;;;;;;5023789;28;20132;-63
2022/12/11 10:36:44;;;;;;;0.47;0.47;;;3.30;99.90;;;;;;5023497;28;20147;-63
2022/12/11 10:39:21;;;;;;;0.82;0.82;;;3.30;99.90;;;;;;5024695;28;20991;-63
2022/12/11 10:41:49;;;;;;;1.90;1.77;;;3.30;99.90;;;;;;5024629;28;20068;-63
2022/12/11 10:44:16;;;;;;;3.15;2.92;;;3.30;99.90;;;;;;5026319;28;20033;-63
2022/12/11 10:46:43;;;;;;;0.10;0.10;;;3.40;99.90;;;;;;5024391;28;20041;-63
2022/12/11 10:49:24;;;;;;;0.95;0.95;;;3.40;99.90;;;;;;5027786;28;20040;-63
2022/12/11 10:51:52;;;;;;;2.83;2.63;;;3.30;99.90;;;;;;5025532;28;20045;-64
2022/12/11 10:54:30;;;;;;;0.32;0.32;;;3.30;99.90;;;;;;5024711;28;20050;-64
2022/12/11 10:56:56;;;;;;;2.60;2.40;;;3.20;99.90;;;;;;5019146;28;20099;-63
2022/12/11 10:59:46;;;;;;;0.77;0.77;;;3.30;99.90;;;;;;5024559;28;20112;-63
2022/12/11 11:02:33;;;;;;;3.60;3.30;;;3.20;99.90;;;;;;5027170;28;20049;-64
2022/12/11 11:05:09;;;;;;;0.77;0.52;;;3.30;99.90;;;;;;5020241;28;20041;-64
2022/12/11 11:07:34;;;;;;;1.90;1.45;;;3.20;99.90;;;;;;5027988;28;20049;-64
2022/12/11 11:10:09;;;;;;;0.10;0.10;;;3.30;99.90;;;;;;5026008;28;20060;-64
2022/12/11 11:12:44;;;;;;;0.82;0.82;;;3.30;99.90;;;;;;5026778;28;20124;-64
2022/12/11 11:15:14;;;;;;;6.22;1.20;;;3.30;99.90;;;;;;5023465;28;20057;-65
2022/12/11 11:17:44;;;;;;;0.10;0.10;;;3.40;99.90;;;;;;5020405;28;20041;-64
2022/12/11 11:20:18;;;;;;;3.00;2.67;;;3.40;99.90;;;;;;5026786;28;20508;-64
2022/12/11 11:22:49;;;;;;;1.05;1.05;;;3.30;99.90;;;;;;5026502;28;20057;-64
2022/12/11 11:25:20;;;;;;;0.43;0.43;;;3.40;99.90;;;;;;5027304;28;20037;-64
2022/12/11 11:27:59;;;;;;;4.50;3.17;;;3.30;99.90;;;;;;5024581;28;20046;-64
2022/12/11 11:30:34;;;;;;;0.98;0.98;;;3.30;99.90;;;;;;5025570;28;20175;-65
2022/12/11 11:33:11;;;;;;;1.40;1.38;;;3.30;99.90;;;;;;5026094;28;20520;-64
2022/12/11 11:35:37;;;;;;;1.00;1.00;;;3.40;99.90;;;;;;5027022;28;20045;-64
2022/12/11 11:38:19;;;;;;;0.73;0.73;;;3.40;99.90;;;;;;5026584;28;20512;-63
2022/12/11 11:41:08;;;;;;;2.50;1.27;;;3.40;99.90;;;;;;5020295;28;20508;-63
2022/12/11 11:43:59;;;;;;;0.80;0.80;;;3.40;99.90;;;;;;5029561;28;20518;-63
2022/12/11 11:46:42;;;;;;;0.30;0.30;;;3.40;99.90;;;;;;5019636;28;20100;-63
2022/12/11 11:49:35;;;;;;;9.20;2.67;;;3.50;99.90;;;;;;5031489;28;20046;-64
2022/12/11 11:52:28;;;;;;;2.55;2.40;;;3.50;99.90;;;;;;5029718;28;20088;-64
2022/12/11 11:55:17;;;;;;;1.13;0.65;;;3.50;99.90;;;;;;5027415;28;20084;-65
2022/12/11 11:57:50;;;;;;;1.17;1.17;;;3.50;99.90;;;;;;5031266;28;20048;-64
2022/12/11 12:00:24;;;;;;;0.73;0.73;;;3.50;99.90;;;;;;5029612;28;20052;-64
2022/12/11 12:02:55;;;;;;;1.23;1.20;;;3.50;99.90;;;;;;5025072;28;20540;-64
2022/12/11 12:05:52;;;;;;;1.40;1.30;;;3.40;99.90;;;;;;5030442;28;20042;-64
2022/12/11 12:08:45;;;;;;;0.60;0.60;;;3.50;99.90;;;;;;5029103;28;20084;-64
2022/12/11 12:11:30;;;;;;;0.83;0.83;;;3.50;99.90;;;;;;5017606;28;20026;-64
2022/12/11 12:14:20;;;;;;;1.80;1.65;;;3.50;99.90;;;;;;5028660;28;20632;-64
2022/12/11 12:17:19;;;;;;;0.60;0.60;;;3.50;99.90;;;;;;5021136;28;20046;-64
2022/12/11 12:20:03;;;;;;;3.97;3.67;;;3.60;99.90;;;;;;5027661;28;20041;-64
2022/12/11 12:23:02;;;;;;;0.52;0.52;;;3.50;99.90;;;;;;5026571;28;20113;-64
2022/12/11 12:25:43;;;;;;;0.20;0.20;;;3.50;99.90;;;;;;5028120;28;20050;-64
2022/12/11 12:28:43;;;;;;;0.75;0.75;;;3.50;99.90;;;;;;5018179;28;20045;-64
2022/12/11 12:31:31;;;;;;;0.57;0.57;;;3.50;99.90;;;;;;5029012;28;20531;-65
2022/12/11 12:34:24;;;;;;;0.35;0.35;;;3.50;99.90;;;;;;5023811;28;20103;-63
2022/12/11 12:36:52;;;;;;;0.28;0.28;;;3.50;99.90;;;;;;5029027;28;20057;-64
2022/12/11 12:39:33;;;;;;;0.75;0.75;;;3.50;99.90;;;;;;5025813;28;20041;-63
2022/12/11 12:42:14;;;;;;;2.88;2.13;;;3.60;99.90;;;;;;5018961;28;20129;-64
2022/12/11 12:44:45;;;;;;;0.38;0.38;;;3.50;99.90;;;;;;5028163;28;20053;-64
2022/12/11 12:47:16;;;;;;;0.68;0.68;;;3.50;99.90;;;;;;5024004;28;20049;-64
2022/12/11 12:49:45;;;;;;;3.92;1.27;;;3.50;99.90;;;;;;5030201;28;20041;-64
2022/12/11 12:52:26;;;;;;;0.88;0.80;;;3.60;99.90;;;;;;5026233;28;20056;-64
2022/12/11 12:55:15;;;;;;;0.30;0.30;;;3.60;99.90;;;;;;5028999;28;20106;-63
2022/12/11 12:57:59;;;;;;;0.60;0.60;;;3.50;99.90;;;;;;5025554;28;20041;-65
2022/12/11 13:00:42;;;;;;;0.10;0.10;;;3.50;99.90;;;;;;5027830;28;20120;-65
2022/12/11 13:03:13;;;;;;;1.47;1.37;;;3.50;99.90;;;;;;5029299;28;20045;-64
2022/12/11 13:05:42;;;;;;;0.60;0.55;;;3.40;99.90;;;;;;5029098;28;20775;-64
2022/12/11 13:08:10;;;;;;;0.88;0.88;;;3.50;99.90;;;;;;5029143;28;20045;-64
2022/12/11 13:10:39;;;;;;;1.30;1.23;;;3.50;99.90;;;;;;5028369;28;20091;-64
2022/12/11 13:13:24;;;;;;;5.93;1.83;;;3.40;99.90;;;;;;5027073;28;20053;-64
2022/12/11 13:15:50;;;;;;;2.33;1.65;;;3.50;99.90;;;;;;5029675;28;20096;-64
2022/12/11 13:18:37;;;;;;;1.13;1.13;;;3.50;99.90;;;;;;5028229;28;20432;-64
2022/12/11 13:21:41;;;;;;;0.40;0.40;;;3.60;99.90;;;;;;5026666;28;20038;-64
2022/12/11 13:24:20;;;;;;;0.98;0.88;;;3.50;99.90;;;;;;5028221;28;20143;-63
2022/12/11 13:26:47;;;;;;;0.20;0.20;;;3.50;99.90;;;;;;5017041;28;20397;-64
2022/12/11 13:29:28;;;;;;;2.10;2.00;;;3.50;99.90;;;;;;5023405;28;20048;-63
2022/12/11 13:32:03;;;;;;;1.52;1.45;;;3.40;99.90;;;;;;5027754;28;20041;-64